Аэропорт: Ленкорань. Ленкорань

ICAO: UBBL

METAR:
2021-01-20 04:00:00
UBBL 200400Z 32006KT 8000 -RA SCT007 OVC014 02/02 Q1021 R33/CLRD// NOSIG RMK MT OBSC
METAR:
2021-01-19 23:17:00
TAF UBBL 192317Z 2000/2024 30008KT 5000 -RA BKN008 OVC016 TX06/2011Z TN01/2002Z TEMPO 2000/2006 3000 BKN005 TEMPO 2006/2012 33016KT 3000 -RASN BKN006 OVC012